sensor_id;sensor_type;location;lat;lon;timestamp;P1;durP1;ratioP1;P2;durP2;ratioP2
70929;SDS011;58588;48.102;19.682;2023-02-28T00:02:45;30.83;;;11.90;;
70929;SDS011;58588;48.102;19.682;2023-02-28T00:05:47;31.08;;;11.13;;
70929;SDS011;58588;48.102;19.682;2023-02-28T00:08:51;36.92;;;12.65;;
70929;SDS011;58588;48.102;19.682;2023-02-28T00:11:53;33.27;;;11.63;;
70929;SDS011;58588;48.102;19.682;2023-02-28T00:14:55;29.88;;;9.57;;
70929;SDS011;58588;48.102;19.682;2023-02-28T00:17:57;25.38;;;8.15;;
70929;SDS011;58588;48.102;19.682;2023-02-28T00:21:04;29.15;;;9.70;;
70929;SDS011;58588;48.102;19.682;2023-02-28T00:24:33;27.20;;;9.35;;
70929;SDS011;58588;48.102;19.682;2023-02-28T00:27:35;29.13;;;9.50;;
70929;SDS011;58588;48.102;19.682;2023-02-28T00:30:38;30.73;;;11.35;;
70929;SDS011;58588;48.102;19.682;2023-02-28T00:33:43;33.77;;;11.60;;
70929;SDS011;58588;48.102;19.682;2023-02-28T00:36:45;29.20;;;9.45;;
70929;SDS011;58588;48.102;19.682;2023-02-28T00:39:51;29.17;;;10.70;;
70929;SDS011;58588;48.102;19.682;2023-02-28T00:42:53;26.80;;;10.07;;
70929;SDS011;58588;48.102;19.682;2023-02-28T00:45:55;38.33;;;13.20;;
70929;SDS011;58588;48.102;19.682;2023-02-28T00:48:57;36.65;;;11.27;;
70929;SDS011;58588;48.102;19.682;2023-02-28T00:52:00;30.35;;;10.52;;
70929;SDS011;58588;48.102;19.682;2023-02-28T00:55:04;41.15;;;13.50;;
70929;SDS011;58588;48.102;19.682;2023-02-28T00:58:06;44.78;;;14.52;;
70929;SDS011;58588;48.102;19.682;2023-02-28T01:01:08;26.45;;;10.95;;
70929;SDS011;58588;48.102;19.682;2023-02-28T01:04:10;31.38;;;11.73;;
70929;SDS011;58588;48.102;19.682;2023-02-28T01:07:12;30.70;;;10.80;;
70929;SDS011;58588;48.102;19.682;2023-02-28T01:10:16;28.08;;;9.90;;
70929;SDS011;58588;48.102;19.682;2023-02-28T01:13:18;23.98;;;8.60;;
70929;SDS011;58588;48.102;19.682;2023-02-28T01:16:21;25.02;;;8.88;;
70929;SDS011;58588;48.102;19.682;2023-02-28T01:19:23;22.33;;;8.67;;
70929;SDS011;58588;48.102;19.682;2023-02-28T01:22:25;23.40;;;8.52;;
70929;SDS011;58588;48.102;19.682;2023-02-28T01:25:28;22.63;;;9.15;;
70929;SDS011;58588;48.102;19.682;2023-02-28T01:28:30;22.48;;;8.13;;
70929;SDS011;58588;48.102;19.682;2023-02-28T01:31:32;18.73;;;7.77;;
70929;SDS011;58588;48.102;19.682;2023-02-28T01:34:34;17.40;;;6.90;;
70929;SDS011;58588;48.102;19.682;2023-02-28T01:37:37;22.67;;;8.18;;
70929;SDS011;58588;48.102;19.682;2023-02-28T01:40:40;23.90;;;9.10;;
70929;SDS011;58588;48.102;19.682;2023-02-28T01:43:52;24.52;;;9.35;;
70929;SDS011;58588;48.102;19.682;2023-02-28T01:47:06;19.05;;;8.27;;
70929;SDS011;58588;48.102;19.682;2023-02-28T01:50:09;23.58;;;8.38;;
70929;SDS011;58588;48.102;19.682;2023-02-28T01:53:16;19.85;;;8.07;;
70929;SDS011;58588;48.102;19.682;2023-02-28T01:56:24;19.10;;;7.20;;
70929;SDS011;58588;48.102;19.682;2023-02-28T01:59:30;21.08;;;6.70;;
70929;SDS011;58588;48.102;19.682;2023-02-28T02:02:37;19.40;;;7.18;;
70929;SDS011;58588;48.102;19.682;2023-02-28T02:05:40;24.52;;;8.55;;
70929;SDS011;58588;48.102;19.682;2023-02-28T02:08:47;24.73;;;9.30;;
70929;SDS011;58588;48.102;19.682;2023-02-28T02:11:51;29.65;;;10.10;;
70929;SDS011;58588;48.102;19.682;2023-02-28T02:14:56;24.33;;;8.77;;
70929;SDS011;58588;48.102;19.682;2023-02-28T02:18:08;24.00;;;8.35;;
70929;SDS011;58588;48.102;19.682;2023-02-28T02:21:24;30.13;;;9.07;;
70929;SDS011;58588;48.102;19.682;2023-02-28T02:24:58;23.65;;;8.60;;
70929;SDS011;58588;48.102;19.682;2023-02-28T02:28:32;26.08;;;9.10;;
70929;SDS011;58588;48.102;19.682;2023-02-28T02:31:53;28.38;;;9.68;;
70929;SDS011;58588;48.102;19.682;2023-02-28T02:35:13;31.30;;;10.38;;
70929;SDS011;58588;48.102;19.682;2023-02-28T02:38:21;28.17;;;10.32;;
70929;SDS011;58588;48.102;19.682;2023-02-28T02:41:34;26.85;;;9.80;;
70929;SDS011;58588;48.102;19.682;2023-02-28T02:44:42;27.33;;;10.98;;
70929;SDS011;58588;48.102;19.682;2023-02-28T02:47:49;33.72;;;10.77;;
70929;SDS011;58588;48.102;19.682;2023-02-28T02:50:55;23.35;;;8.85;;
70929;SDS011;58588;48.102;19.682;2023-02-28T02:54:00;26.23;;;9.05;;
70929;SDS011;58588;48.102;19.682;2023-02-28T02:57:08;23.80;;;8.00;;
70929;SDS011;58588;48.102;19.682;2023-02-28T03:00:13;21.07;;;7.90;;
70929;SDS011;58588;48.102;19.682;2023-02-28T03:03:19;24.05;;;7.60;;
70929;SDS011;58588;48.102;19.682;2023-02-28T03:06:30;21.92;;;7.32;;
70929;SDS011;58588;48.102;19.682;2023-02-28T03:09:33;19.10;;;6.90;;
70929;SDS011;58588;48.102;19.682;2023-02-28T03:12:39;20.87;;;6.93;;
70929;SDS011;58588;48.102;19.682;2023-02-28T03:15:51;16.73;;;6.35;;
70929;SDS011;58588;48.102;19.682;2023-02-28T03:19:06;17.98;;;6.50;;
70929;SDS011;58588;48.102;19.682;2023-02-28T03:22:45;18.33;;;6.43;;
70929;SDS011;58588;48.102;19.682;2023-02-28T03:25:55;15.65;;;5.78;;
70929;SDS011;58588;48.102;19.682;2023-02-28T03:29:03;16.17;;;6.30;;
70929;SDS011;58588;48.102;19.682;2023-02-28T03:32:11;18.85;;;7.32;;
70929;SDS011;58588;48.102;19.682;2023-02-28T03:35:22;20.40;;;7.25;;
70929;SDS011;58588;48.102;19.682;2023-02-28T03:38:29;21.23;;;8.15;;
70929;SDS011;58588;48.102;19.682;2023-02-28T03:41:36;23.23;;;9.20;;
70929;SDS011;58588;48.102;19.682;2023-02-28T03:44:42;21.83;;;8.05;;
70929;SDS011;58588;48.102;19.682;2023-02-28T03:47:49;23.45;;;7.60;;
70929;SDS011;58588;48.102;19.682;2023-02-28T03:50:55;23.37;;;7.97;;
70929;SDS011;58588;48.102;19.682;2023-02-28T03:54:02;21.10;;;7.85;;
70929;SDS011;58588;48.102;19.682;2023-02-28T03:57:10;22.40;;;8.88;;
70929;SDS011;58588;48.102;19.682;2023-02-28T04:00:17;16.90;;;6.90;;
70929;SDS011;58588;48.102;19.682;2023-02-28T04:03:22;15.80;;;6.93;;
70929;SDS011;58588;48.102;19.682;2023-02-28T04:06:24;19.50;;;7.27;;
70929;SDS011;58588;48.102;19.682;2023-02-28T04:09:28;24.75;;;7.22;;
70929;SDS011;58588;48.102;19.682;2023-02-28T04:12:30;19.90;;;6.63;;
70929;SDS011;58588;48.102;19.682;2023-02-28T04:15:32;16.40;;;6.13;;
70929;SDS011;58588;48.102;19.682;2023-02-28T04:18:34;22.42;;;6.80;;
70929;SDS011;58588;48.102;19.682;2023-02-28T04:21:37;23.77;;;7.90;;
70929;SDS011;58588;48.102;19.682;2023-02-28T04:24:43;29.60;;;10.55;;
70929;SDS011;58588;48.102;19.682;2023-02-28T04:27:45;27.77;;;11.13;;
70929;SDS011;58588;48.102;19.682;2023-02-28T04:30:47;22.85;;;8.40;;
70929;SDS011;58588;48.102;19.682;2023-02-28T04:33:55;22.33;;;7.72;;
70929;SDS011;58588;48.102;19.682;2023-02-28T04:36:57;21.37;;;7.63;;
70929;SDS011;58588;48.102;19.682;2023-02-28T04:40:02;20.55;;;6.82;;
70929;SDS011;58588;48.102;19.682;2023-02-28T04:43:05;17.27;;;6.15;;
70929;SDS011;58588;48.102;19.682;2023-02-28T04:46:07;21.05;;;7.22;;
70929;SDS011;58588;48.102;19.682;2023-02-28T04:49:11;19.15;;;7.38;;
70929;SDS011;58588;48.102;19.682;2023-02-28T04:52:13;18.50;;;7.27;;
70929;SDS011;58588;48.102;19.682;2023-02-28T04:55:17;22.35;;;8.30;;
70929;SDS011;58588;48.102;19.682;2023-02-28T04:58:19;24.27;;;8.55;;
70929;SDS011;58588;48.102;19.682;2023-02-28T05:01:24;25.33;;;10.02;;
70929;SDS011;58588;48.102;19.682;2023-02-28T05:04:27;32.17;;;10.83;;
70929;SDS011;58588;48.102;19.682;2023-02-28T05:07:30;29.92;;;9.88;;
70929;SDS011;58588;48.102;19.682;2023-02-28T05:10:33;25.35;;;9.35;;
70929;SDS011;58588;48.102;19.682;2023-02-28T05:13:35;25.92;;;9.40;;
70929;SDS011;58588;48.102;19.682;2023-02-28T05:16:37;24.80;;;9.07;;
70929;SDS011;58588;48.102;19.682;2023-02-28T05:19:39;24.17;;;9.83;;
70929;SDS011;58588;48.102;19.682;2023-02-28T05:22:41;25.63;;;9.20;;
70929;SDS011;58588;48.102;19.682;2023-02-28T05:25:46;25.13;;;9.32;;
70929;SDS011;58588;48.102;19.682;2023-02-28T05:28:48;24.40;;;9.73;;
70929;SDS011;58588;48.102;19.682;2023-02-28T05:31:50;30.95;;;11.50;;
70929;SDS011;58588;48.102;19.682;2023-02-28T05:34:52;28.37;;;10.20;;
70929;SDS011;58588;48.102;19.682;2023-02-28T05:37:54;26.38;;;10.75;;
70929;SDS011;58588;48.102;19.682;2023-02-28T05:40:57;29.58;;;10.75;;
70929;SDS011;58588;48.102;19.682;2023-02-28T05:43:59;21.45;;;9.13;;
70929;SDS011;58588;48.102;19.682;2023-02-28T05:47:02;21.55;;;8.48;;
70929;SDS011;58588;48.102;19.682;2023-02-28T05:50:04;21.67;;;9.10;;
70929;SDS011;58588;48.102;19.682;2023-02-28T05:53:07;21.77;;;9.27;;
70929;SDS011;58588;48.102;19.682;2023-02-28T05:56:11;25.90;;;10.77;;
70929;SDS011;58588;48.102;19.682;2023-02-28T05:59:13;25.27;;;10.95;;
70929;SDS011;58588;48.102;19.682;2023-02-28T06:02:15;60.85;;;20.35;;
70929;SDS011;58588;48.102;19.682;2023-02-28T06:05:18;79.50;;;28.53;;
70929;SDS011;58588;48.102;19.682;2023-02-28T06:08:20;55.75;;;21.73;;
70929;SDS011;58588;48.102;19.682;2023-02-28T06:11:24;34.70;;;14.80;;
70929;SDS011;58588;48.102;19.682;2023-02-28T06:14:27;37.25;;;14.43;;
70929;SDS011;58588;48.102;19.682;2023-02-28T06:17:29;35.63;;;15.35;;
70929;SDS011;58588;48.102;19.682;2023-02-28T06:20:31;37.47;;;15.77;;
70929;SDS011;58588;48.102;19.682;2023-02-28T06:23:33;40.60;;;14.88;;
70929;SDS011;58588;48.102;19.682;2023-02-28T06:26:36;34.22;;;12.57;;
70929;SDS011;58588;48.102;19.682;2023-02-28T06:29:38;31.88;;;12.63;;
70929;SDS011;58588;48.102;19.682;2023-02-28T06:32:41;31.88;;;11.77;;
70929;SDS011;58588;48.102;19.682;2023-02-28T06:35:43;34.33;;;11.70;;
70929;SDS011;58588;48.102;19.682;2023-02-28T06:38:45;30.55;;;11.90;;
70929;SDS011;58588;48.102;19.682;2023-02-28T06:41:53;33.97;;;12.75;;
70929;SDS011;58588;48.102;19.682;2023-02-28T06:44:55;33.40;;;13.25;;
70929;SDS011;58588;48.102;19.682;2023-02-28T06:47:57;39.33;;;14.93;;
70929;SDS011;58588;48.102;19.682;2023-02-28T06:51:03;35.20;;;13.67;;
70929;SDS011;58588;48.102;19.682;2023-02-28T06:54:07;47.33;;;17.15;;
70929;SDS011;58588;48.102;19.682;2023-02-28T06:57:10;42.42;;;15.80;;
70929;SDS011;58588;48.102;19.682;2023-02-28T07:00:13;43.45;;;16.38;;
70929;SDS011;58588;48.102;19.682;2023-02-28T07:03:16;36.25;;;15.73;;
70929;SDS011;58588;48.102;19.682;2023-02-28T07:06:18;33.10;;;13.40;;
70929;SDS011;58588;48.102;19.682;2023-02-28T07:09:22;29.77;;;13.25;;
70929;SDS011;58588;48.102;19.682;2023-02-28T07:12:26;34.78;;;13.88;;
70929;SDS011;58588;48.102;19.682;2023-02-28T07:15:28;27.60;;;11.60;;
70929;SDS011;58588;48.102;19.682;2023-02-28T07:18:30;30.35;;;11.80;;
70929;SDS011;58588;48.102;19.682;2023-02-28T07:21:33;31.07;;;14.70;;
70929;SDS011;58588;48.102;19.682;2023-02-28T07:24:35;24.20;;;10.43;;
70929;SDS011;58588;48.102;19.682;2023-02-28T07:27:38;22.98;;;8.43;;
70929;SDS011;58588;48.102;19.682;2023-02-28T07:30:40;17.92;;;7.30;;
70929;SDS011;58588;48.102;19.682;2023-02-28T07:33:42;18.73;;;7.78;;
70929;SDS011;58588;48.102;19.682;2023-02-28T07:36:44;19.83;;;7.40;;
70929;SDS011;58588;48.102;19.682;2023-02-28T07:39:46;20.33;;;8.65;;
70929;SDS011;58588;48.102;19.682;2023-02-28T07:42:50;20.27;;;8.43;;
70929;SDS011;58588;48.102;19.682;2023-02-28T07:45:52;20.75;;;8.73;;
70929;SDS011;58588;48.102;19.682;2023-02-28T07:48:54;19.33;;;7.68;;
70929;SDS011;58588;48.102;19.682;2023-02-28T07:51:59;19.93;;;7.93;;
70929;SDS011;58588;48.102;19.682;2023-02-28T07:55:01;18.15;;;7.68;;
70929;SDS011;58588;48.102;19.682;2023-02-28T07:58:06;19.80;;;8.15;;
70929;SDS011;58588;48.102;19.682;2023-02-28T08:01:08;17.98;;;7.30;;
70929;SDS011;58588;48.102;19.682;2023-02-28T08:04:11;19.77;;;7.65;;
70929;SDS011;58588;48.102;19.682;2023-02-28T08:07:14;21.47;;;7.70;;
70929;SDS011;58588;48.102;19.682;2023-02-28T08:10:17;19.45;;;7.22;;
70929;SDS011;58588;48.102;19.682;2023-02-28T08:13:20;18.15;;;7.18;;
70929;SDS011;58588;48.102;19.682;2023-02-28T08:16:22;18.85;;;7.53;;
70929;SDS011;58588;48.102;19.682;2023-02-28T08:19:24;17.48;;;6.53;;
70929;SDS011;58588;48.102;19.682;2023-02-28T08:22:26;17.80;;;6.97;;
70929;SDS011;58588;48.102;19.682;2023-02-28T08:25:28;16.33;;;5.78;;
70929;SDS011;58588;48.102;19.682;2023-02-28T08:28:32;13.88;;;5.43;;
70929;SDS011;58588;48.102;19.682;2023-02-28T08:31:34;14.90;;;5.47;;
70929;SDS011;58588;48.102;19.682;2023-02-28T08:34:38;14.65;;;5.05;;
70929;SDS011;58588;48.102;19.682;2023-02-28T08:37:40;12.80;;;4.90;;
70929;SDS011;58588;48.102;19.682;2023-02-28T08:40:42;16.80;;;6.75;;
70929;SDS011;58588;48.102;19.682;2023-02-28T08:43:46;20.13;;;7.60;;
70929;SDS011;58588;48.102;19.682;2023-02-28T08:46:48;16.00;;;5.70;;
70929;SDS011;58588;48.102;19.682;2023-02-28T08:49:50;13.55;;;5.00;;
70929;SDS011;58588;48.102;19.682;2023-02-28T08:52:52;20.03;;;7.60;;
70929;SDS011;58588;48.102;19.682;2023-02-28T08:55:57;14.07;;;5.00;;
70929;SDS011;58588;48.102;19.682;2023-02-28T08:59:01;30.13;;;12.43;;
70929;SDS011;58588;48.102;19.682;2023-02-28T09:02:04;39.80;;;17.30;;
70929;SDS011;58588;48.102;19.682;2023-02-28T09:05:06;14.13;;;5.78;;
70929;SDS011;58588;48.102;19.682;2023-02-28T09:08:09;12.67;;;5.33;;
70929;SDS011;58588;48.102;19.682;2023-02-28T09:11:11;13.93;;;5.85;;
70929;SDS011;58588;48.102;19.682;2023-02-28T09:14:15;9.23;;;3.63;;
70929;SDS011;58588;48.102;19.682;2023-02-28T09:17:17;11.63;;;5.65;;
70929;SDS011;58588;48.102;19.682;2023-02-28T09:20:20;11.68;;;4.68;;
70929;SDS011;58588;48.102;19.682;2023-02-28T09:23:22;11.80;;;3.70;;
70929;SDS011;58588;48.102;19.682;2023-02-28T09:26:26;10.30;;;3.30;;
70929;SDS011;58588;48.102;19.682;2023-02-28T09:29:33;11.02;;;4.82;;
70929;SDS011;58588;48.102;19.682;2023-02-28T09:32:36;10.52;;;3.60;;
70929;SDS011;58588;48.102;19.682;2023-02-28T09:35:38;11.73;;;5.43;;
70929;SDS011;58588;48.102;19.682;2023-02-28T09:38:40;10.80;;;3.63;;
70929;SDS011;58588;48.102;19.682;2023-02-28T09:41:44;11.98;;;5.28;;
70929;SDS011;58588;48.102;19.682;2023-02-28T09:44:51;11.50;;;4.35;;
70929;SDS011;58588;48.102;19.682;2023-02-28T09:47:54;10.85;;;3.35;;
70929;SDS011;58588;48.102;19.682;2023-02-28T09:51:00;10.43;;;4.10;;
70929;SDS011;58588;48.102;19.682;2023-02-28T09:54:05;10.80;;;4.07;;
70929;SDS011;58588;48.102;19.682;2023-02-28T09:57:08;9.50;;;3.20;;
70929;SDS011;58588;48.102;19.682;2023-02-28T10:00:18;8.80;;;3.50;;
70929;SDS011;58588;48.102;19.682;2023-02-28T10:03:25;9.68;;;3.50;;
70929;SDS011;58588;48.102;19.682;2023-02-28T10:06:32;13.63;;;3.67;;
70929;SDS011;58588;48.102;19.682;2023-02-28T10:09:39;9.70;;;3.60;;
70929;SDS011;58588;48.102;19.682;2023-02-28T10:12:42;10.98;;;3.35;;
70929;SDS011;58588;48.102;19.682;2023-02-28T10:15:50;11.75;;;3.90;;
70929;SDS011;58588;48.102;19.682;2023-02-28T10:18:57;10.15;;;3.50;;
70929;SDS011;58588;48.102;19.682;2023-02-28T10:22:04;9.27;;;3.58;;
70929;SDS011;58588;48.102;19.682;2023-02-28T10:25:16;10.27;;;3.60;;
70929;SDS011;58588;48.102;19.682;2023-02-28T10:28:20;11.25;;;4.18;;
70929;SDS011;58588;48.102;19.682;2023-02-28T10:31:23;10.10;;;3.50;;
70929;SDS011;58588;48.102;19.682;2023-02-28T10:34:25;11.43;;;3.35;;
70929;SDS011;58588;48.102;19.682;2023-02-28T10:37:28;12.25;;;3.75;;
70929;SDS011;58588;48.102;19.682;2023-02-28T10:40:32;12.17;;;4.23;;
70929;SDS011;58588;48.102;19.682;2023-02-28T10:43:37;11.68;;;4.05;;
70929;SDS011;58588;48.102;19.682;2023-02-28T10:46:42;9.43;;;3.50;;
70929;SDS011;58588;48.102;19.682;2023-02-28T10:49:48;8.70;;;3.10;;
70929;SDS011;58588;48.102;19.682;2023-02-28T10:52:52;9.82;;;3.45;;
70929;SDS011;58588;48.102;19.682;2023-02-28T10:55:58;9.93;;;3.07;;
70929;SDS011;58588;48.102;19.682;2023-02-28T10:59:03;10.10;;;3.55;;
70929;SDS011;58588;48.102;19.682;2023-02-28T11:02:32;9.45;;;3.60;;
70929;SDS011;58588;48.102;19.682;2023-02-28T11:05:36;11.23;;;4.30;;
70929;SDS011;58588;48.102;19.682;2023-02-28T11:08:43;10.80;;;3.50;;
70929;SDS011;58588;48.102;19.682;2023-02-28T11:11:47;17.50;;;7.53;;
70929;SDS011;58588;48.102;19.682;2023-02-28T11:14:52;9.10;;;3.78;;
70929;SDS011;58588;48.102;19.682;2023-02-28T11:17:59;17.67;;;9.43;;
70929;SDS011;58588;48.102;19.682;2023-02-28T11:21:06;11.68;;;4.45;;
70929;SDS011;58588;48.102;19.682;2023-02-28T11:24:12;12.75;;;5.20;;
70929;SDS011;58588;48.102;19.682;2023-02-28T11:27:40;13.70;;;5.37;;
70929;SDS011;58588;48.102;19.682;2023-02-28T11:30:49;9.07;;;3.38;;
70929;SDS011;58588;48.102;19.682;2023-02-28T11:34:07;10.50;;;4.25;;
70929;SDS011;58588;48.102;19.682;2023-02-28T11:37:26;11.43;;;4.22;;
70929;SDS011;58588;48.102;19.682;2023-02-28T11:40:31;13.60;;;4.78;;
70929;SDS011;58588;48.102;19.682;2023-02-28T11:43:51;65.63;;;20.60;;
70929;SDS011;58588;48.102;19.682;2023-02-28T11:47:03;10.35;;;3.83;;
70929;SDS011;58588;48.102;19.682;2023-02-28T11:50:16;15.15;;;5.38;;
70929;SDS011;58588;48.102;19.682;2023-02-28T11:53:35;8.57;;;2.97;;
70929;SDS011;58588;48.102;19.682;2023-02-28T11:56:58;9.68;;;3.40;;
70929;SDS011;58588;48.102;19.682;2023-02-28T12:00:07;9.87;;;3.17;;
70929;SDS011;58588;48.102;19.682;2023-02-28T12:03:26;32.58;;;12.98;;
70929;SDS011;58588;48.102;19.682;2023-02-28T12:06:36;24.65;;;11.05;;
70929;SDS011;58588;48.102;19.682;2023-02-28T12:09:44;33.17;;;16.70;;
70929;SDS011;58588;48.102;19.682;2023-02-28T12:13:02;9.85;;;4.25;;
70929;SDS011;58588;48.102;19.682;2023-02-28T12:19:52;9.52;;;3.72;;
70929;SDS011;58588;48.102;19.682;2023-02-28T12:23:21;12.60;;;5.25;;
70929;SDS011;58588;48.102;19.682;2023-02-28T12:26:34;9.57;;;3.83;;
70929;SDS011;58588;48.102;19.682;2023-02-28T12:29:41;11.00;;;3.65;;
70929;SDS011;58588;48.102;19.682;2023-02-28T12:32:49;8.73;;;3.20;;
70929;SDS011;58588;48.102;19.682;2023-02-28T12:35:56;10.50;;;3.92;;
70929;SDS011;58588;48.102;19.682;2023-02-28T12:39:02;9.32;;;3.00;;
70929;SDS011;58588;48.102;19.682;2023-02-28T12:42:10;8.77;;;3.28;;
70929;SDS011;58588;48.102;19.682;2023-02-28T12:45:16;9.73;;;3.53;;
70929;SDS011;58588;48.102;19.682;2023-02-28T12:48:22;8.17;;;3.13;;
70929;SDS011;58588;48.102;19.682;2023-02-28T12:51:29;8.73;;;2.92;;
70929;SDS011;58588;48.102;19.682;2023-02-28T12:54:35;9.95;;;3.60;;
70929;SDS011;58588;48.102;19.682;2023-02-28T12:57:43;10.48;;;3.53;;
70929;SDS011;58588;48.102;19.682;2023-02-28T13:00:58;9.52;;;3.15;;
70929;SDS011;58588;48.102;19.682;2023-02-28T13:11:41;9.10;;;3.42;;
70929;SDS011;58588;48.102;19.682;2023-02-28T13:14:45;7.72;;;2.90;;
70929;SDS011;58588;48.102;19.682;2023-02-28T13:17:48;9.77;;;3.20;;
70929;SDS011;58588;48.102;19.682;2023-02-28T13:20:51;9.83;;;3.50;;
70929;SDS011;58588;48.102;19.682;2023-02-28T13:24:00;10.85;;;3.58;;
70929;SDS011;58588;48.102;19.682;2023-02-28T13:27:22;8.07;;;2.92;;
70929;SDS011;58588;48.102;19.682;2023-02-28T13:34:14;9.77;;;3.10;;
70929;SDS011;58588;48.102;19.682;2023-02-28T13:37:33;8.70;;;2.60;;
70929;SDS011;58588;48.102;19.682;2023-02-28T13:40:38;8.02;;;2.72;;
70929;SDS011;58588;48.102;19.682;2023-02-28T13:47:23;8.80;;;3.00;;
70929;SDS011;58588;48.102;19.682;2023-02-28T13:50:32;8.50;;;3.60;;
70929;SDS011;58588;48.102;19.682;2023-02-28T13:53:50;9.20;;;3.07;;
70929;SDS011;58588;48.102;19.682;2023-02-28T13:57:07;9.00;;;2.83;;
70929;SDS011;58588;48.102;19.682;2023-02-28T14:00:27;10.30;;;2.92;;
70929;SDS011;58588;48.102;19.682;2023-02-28T14:03:39;11.40;;;4.40;;
70929;SDS011;58588;48.102;19.682;2023-02-28T14:07:00;8.20;;;3.05;;
70929;SDS011;58588;48.102;19.682;2023-02-28T14:10:04;9.33;;;3.37;;
70929;SDS011;58588;48.102;19.682;2023-02-28T14:13:12;8.02;;;2.90;;
70929;SDS011;58588;48.102;19.682;2023-02-28T14:16:40;9.27;;;3.15;;
70929;SDS011;58588;48.102;19.682;2023-02-28T14:19:45;8.18;;;2.70;;
70929;SDS011;58588;48.102;19.682;2023-02-28T14:22:52;8.63;;;3.10;;
70929;SDS011;58588;48.102;19.682;2023-02-28T14:26:07;10.57;;;3.17;;
70929;SDS011;58588;48.102;19.682;2023-02-28T14:29:33;8.07;;;3.08;;
70929;SDS011;58588;48.102;19.682;2023-02-28T14:32:47;14.18;;;3.20;;
70929;SDS011;58588;48.102;19.682;2023-02-28T14:39:22;8.98;;;3.30;;
70929;SDS011;58588;48.102;19.682;2023-02-28T14:42:28;8.70;;;3.20;;
70929;SDS011;58588;48.102;19.682;2023-02-28T14:45:32;9.90;;;3.38;;
70929;SDS011;58588;48.102;19.682;2023-02-28T14:48:39;11.75;;;3.00;;
70929;SDS011;58588;48.102;19.682;2023-02-28T14:51:41;8.82;;;3.20;;
70929;SDS011;58588;48.102;19.682;2023-02-28T14:54:43;9.23;;;3.17;;
70929;SDS011;58588;48.102;19.682;2023-02-28T14:57:50;8.43;;;3.23;;
70929;SDS011;58588;48.102;19.682;2023-02-28T15:00:54;8.98;;;3.40;;
70929;SDS011;58588;48.102;19.682;2023-02-28T15:04:00;10.23;;;3.58;;
70929;SDS011;58588;48.102;19.682;2023-02-28T15:07:08;9.75;;;3.45;;
70929;SDS011;58588;48.102;19.682;2023-02-28T15:10:13;10.93;;;3.80;;
70929;SDS011;58588;48.102;19.682;2023-02-28T15:13:19;9.33;;;3.73;;
70929;SDS011;58588;48.102;19.682;2023-02-28T15:16:22;10.60;;;3.60;;
70929;SDS011;58588;48.102;19.682;2023-02-28T15:19:29;9.88;;;3.63;;
70929;SDS011;58588;48.102;19.682;2023-02-28T15:22:35;9.43;;;3.70;;
70929;SDS011;58588;48.102;19.682;2023-02-28T15:25:40;10.68;;;3.92;;
70929;SDS011;58588;48.102;19.682;2023-02-28T15:28:43;8.83;;;3.17;;
70929;SDS011;58588;48.102;19.682;2023-02-28T15:31:48;9.02;;;3.28;;
70929;SDS011;58588;48.102;19.682;2023-02-28T15:34:52;11.55;;;4.00;;
70929;SDS011;58588;48.102;19.682;2023-02-28T15:37:55;9.32;;;3.22;;
70929;SDS011;58588;48.102;19.682;2023-02-28T15:40:59;8.90;;;3.40;;
70929;SDS011;58588;48.102;19.682;2023-02-28T15:44:14;8.83;;;3.53;;
70929;SDS011;58588;48.102;19.682;2023-02-28T15:47:29;10.25;;;3.30;;
70929;SDS011;58588;48.102;19.682;2023-02-28T15:50:33;9.13;;;3.50;;
70929;SDS011;58588;48.102;19.682;2023-02-28T15:53:36;10.30;;;4.40;;
70929;SDS011;58588;48.102;19.682;2023-02-28T15:56:50;10.18;;;3.80;;
70929;SDS011;58588;48.102;19.682;2023-02-28T15:59:56;13.73;;;5.87;;
70929;SDS011;58588;48.102;19.682;2023-02-28T16:03:00;22.55;;;13.48;;
70929;SDS011;58588;48.102;19.682;2023-02-28T16:06:12;31.45;;;15.27;;
70929;SDS011;58588;48.102;19.682;2023-02-28T16:09:28;25.60;;;14.30;;
70929;SDS011;58588;48.102;19.682;2023-02-28T16:12:32;24.02;;;12.57;;
70929;SDS011;58588;48.102;19.682;2023-02-28T16:15:37;15.83;;;7.30;;
70929;SDS011;58588;48.102;19.682;2023-02-28T16:18:43;37.80;;;17.52;;
70929;SDS011;58588;48.102;19.682;2023-02-28T16:21:47;19.85;;;9.05;;
70929;SDS011;58588;48.102;19.682;2023-02-28T16:24:49;12.90;;;5.15;;
70929;SDS011;58588;48.102;19.682;2023-02-28T16:27:51;12.20;;;4.25;;
70929;SDS011;58588;48.102;19.682;2023-02-28T16:30:57;10.80;;;4.33;;
70929;SDS011;58588;48.102;19.682;2023-02-28T16:34:01;9.38;;;4.05;;
70929;SDS011;58588;48.102;19.682;2023-02-28T16:37:07;18.83;;;8.88;;
70929;SDS011;58588;48.102;19.682;2023-02-28T16:40:13;24.23;;;11.18;;
70929;SDS011;58588;48.102;19.682;2023-02-28T16:43:17;25.42;;;11.10;;
70929;SDS011;58588;48.102;19.682;2023-02-28T16:46:23;28.00;;;12.17;;
70929;SDS011;58588;48.102;19.682;2023-02-28T16:49:29;37.30;;;18.60;;
70929;SDS011;58588;48.102;19.682;2023-02-28T16:52:33;39.63;;;21.48;;
70929;SDS011;58588;48.102;19.682;2023-02-28T16:55:35;33.67;;;15.02;;
70929;SDS011;58588;48.102;19.682;2023-02-28T16:58:38;29.40;;;13.38;;
70929;SDS011;58588;48.102;19.682;2023-02-28T17:01:40;22.43;;;11.03;;
70929;SDS011;58588;48.102;19.682;2023-02-28T17:04:42;24.38;;;10.43;;
70929;SDS011;58588;48.102;19.682;2023-02-28T17:07:45;21.35;;;8.57;;
70929;SDS011;58588;48.102;19.682;2023-02-28T17:10:48;15.88;;;6.20;;
70929;SDS011;58588;48.102;19.682;2023-02-28T17:13:50;15.57;;;5.70;;
70929;SDS011;58588;48.102;19.682;2023-02-28T17:16:53;14.93;;;5.57;;
70929;SDS011;58588;48.102;19.682;2023-02-28T17:19:56;16.63;;;5.68;;
70929;SDS011;58588;48.102;19.682;2023-02-28T17:23:00;17.00;;;7.03;;
70929;SDS011;58588;48.102;19.682;2023-02-28T17:26:02;22.23;;;8.15;;
70929;SDS011;58588;48.102;19.682;2023-02-28T17:29:11;19.63;;;7.30;;
70929;SDS011;58588;48.102;19.682;2023-02-28T17:32:16;19.37;;;7.63;;
70929;SDS011;58588;48.102;19.682;2023-02-28T17:35:18;21.65;;;8.45;;
70929;SDS011;58588;48.102;19.682;2023-02-28T17:38:22;25.30;;;9.52;;
70929;SDS011;58588;48.102;19.682;2023-02-28T17:41:24;28.05;;;11.48;;
70929;SDS011;58588;48.102;19.682;2023-02-28T17:44:29;21.73;;;8.85;;
70929;SDS011;58588;48.102;19.682;2023-02-28T17:47:31;17.47;;;6.43;;
70929;SDS011;58588;48.102;19.682;2023-02-28T17:50:33;19.35;;;8.10;;
70929;SDS011;58588;48.102;19.682;2023-02-28T17:53:37;29.95;;;11.45;;
70929;SDS011;58588;48.102;19.682;2023-02-28T17:56:39;23.52;;;9.43;;
70929;SDS011;58588;48.102;19.682;2023-02-28T17:59:43;21.80;;;9.05;;
70929;SDS011;58588;48.102;19.682;2023-02-28T18:02:45;18.83;;;6.30;;
70929;SDS011;58588;48.102;19.682;2023-02-28T18:05:47;17.35;;;6.78;;
70929;SDS011;58588;48.102;19.682;2023-02-28T18:08:51;14.27;;;5.60;;
70929;SDS011;58588;48.102;19.682;2023-02-28T18:11:54;14.15;;;5.18;;
70929;SDS011;58588;48.102;19.682;2023-02-28T18:14:56;14.73;;;4.93;;
70929;SDS011;58588;48.102;19.682;2023-02-28T18:17:59;16.23;;;5.20;;
70929;SDS011;58588;48.102;19.682;2023-02-28T18:21:03;13.60;;;4.70;;
70929;SDS011;58588;48.102;19.682;2023-02-28T18:24:07;15.52;;;5.70;;
70929;SDS011;58588;48.102;19.682;2023-02-28T18:27:09;29.45;;;14.57;;
70929;SDS011;58588;48.102;19.682;2023-02-28T18:30:12;25.42;;;12.50;;